Time;durP1;ratioP1;P1;durP2;ratioP2;P2;SDS_P1;SDS_P2;PMS_P1;PMS_P2;Temp;Humidity;BMP_temperature;BMP_pressure;BME280_temperature;BME280_humidity;BME280_pressure;Samples;Min_cycle;Max_cycle;Signal;HPM_P1;HPM_P2
2022/01/01 00:00:44;;;;;;;13.07;9.80;;;;;;;;;;5040441;28;20176;-86
2022/01/01 00:03:10;;;;;;;12.23;9.50;;;;;;;;;;5040166;28;20187;-86
2022/01/01 00:05:36;;;;;;;14.43;9.77;;;;;;;;;;5040112;28;20179;-86
2022/01/01 00:08:05;;;;;;;11.93;9.30;;;;;;;;;;5040086;28;20196;-87
2022/01/01 00:10:31;;;;;;;15.13;10.23;;;;;;;;;;5057213;28;20176;-86
2022/01/01 00:12:57;;;;;;;15.70;10.27;;;;;;;;;;5040296;28;20203;-86
2022/01/01 00:15:23;;;;;;;13.67;9.97;;;;;;;;;;5040044;28;20203;-86
2022/01/01 00:17:49;;;;;;;15.30;10.10;;;;;;;;;;5056995;28;20227;-86
2022/01/01 00:20:15;;;;;;;18.03;12.10;;;;;;;;;;5040309;28;20597;-86
2022/01/01 00:22:42;;;;;;;17.30;12.17;;;;;;;;;;5056815;28;20194;-86
2022/01/01 00:25:08;;;;;;;20.57;13.30;;;;;;;;;;5057215;28;20175;-85
2022/01/01 00:27:35;;;;;;;19.30;12.67;;;;;;;;;;5040082;28;20203;-86
2022/01/01 00:30:01;;;;;;;27.47;17.30;;;;;;;;;;5057129;28;20215;-86
2022/01/01 00:32:27;;;;;;;14.03;10.40;;;;;;;;;;5056943;28;20184;-86
2022/01/01 00:34:53;;;;;;;14.30;9.63;;;;;;;;;;5056927;28;20210;-86
2022/01/01 00:37:19;;;;;;;15.77;10.73;;;;;;;;;;5039712;28;20723;-86
2022/01/01 00:39:45;;;;;;;17.43;12.00;;;;;;;;;;5040120;28;20188;-86
2022/01/01 00:42:11;;;;;;;11.20;8.67;;;;;;;;;;5056788;28;20545;-86
2022/01/01 00:44:37;;;;;;;11.43;8.20;;;;;;;;;;5057135;28;20184;-86
2022/01/01 00:47:04;;;;;;;12.03;8.10;;;;;;;;;;5056794;28;20212;-86
2022/01/01 00:49:30;;;;;;;10.43;7.80;;;;;;;;;;5056587;28;20694;-86
2022/01/01 00:51:56;;;;;;;11.80;8.20;;;;;;;;;;5056540;28;20180;-86
2022/01/01 00:54:22;;;;;;;11.90;7.70;;;;;;;;;;5043455;28;20250;-86
2022/01/01 00:56:48;;;;;;;8.90;7.13;;;;;;;;;;5060774;28;20184;-86
2022/01/01 00:59:15;;;;;;;11.27;8.43;;;;;;;;;;5043559;28;20206;-86
2022/01/01 01:01:41;;;;;;;10.40;7.80;;;;;;;;;;5042875;28;20176;-87
2022/01/01 01:04:07;;;;;;;10.80;7.63;;;;;;;;;;5060526;28;20183;-86
2022/01/01 01:06:33;;;;;;;10.80;7.70;;;;;;;;;;5060411;28;20179;-86
2022/01/01 01:09:00;;;;;;;10.40;7.73;;;;;;;;;;5060400;28;20199;-86
2022/01/01 01:11:27;;;;;;;11.27;7.67;;;;;;;;;;5042610;28;20183;-86
2022/01/01 01:14:00;;;;;;;10.33;7.23;;;;;;;;;;5060656;28;20180;-86
2022/01/01 01:16:26;;;;;;;12.83;7.40;;;;;;;;;;5038997;28;20206;-86
2022/01/01 01:18:54;;;;;;;10.63;7.27;;;;;;;;;;5043113;28;20196;-86
2022/01/01 01:21:24;;;;;;;9.77;7.20;;;;;;;;;;5060157;28;20172;-86
2022/01/01 01:23:51;;;;;;;10.63;7.70;;;;;;;;;;5060143;28;20176;-86
2022/01/01 01:26:17;;;;;;;9.90;7.30;;;;;;;;;;5042815;28;20183;-86
2022/01/01 01:28:48;;;;;;;10.10;7.60;;;;;;;;;;5060116;28;20199;-86
2022/01/01 01:31:15;;;;;;;9.53;6.93;;;;;;;;;;5039893;28;20226;-85
2022/01/01 01:33:41;;;;;;;9.53;7.27;;;;;;;;;;5059915;28;20262;-86
2022/01/01 01:36:07;;;;;;;10.10;7.47;;;;;;;;;;5060017;28;20214;-86
2022/01/01 01:38:36;;;;;;;10.30;7.60;;;;;;;;;;5042831;28;20215;-86
2022/01/01 01:41:03;;;;;;;11.63;8.00;;;;;;;;;;5040792;28;20194;-85
2022/01/01 01:43:29;;;;;;;13.90;9.27;;;;;;;;;;5060027;28;20207;-86
2022/01/01 01:45:55;;;;;;;16.27;9.43;;;;;;;;;;5042828;28;20191;-86
2022/01/01 01:48:21;;;;;;;11.57;8.60;;;;;;;;;;5060007;28;20256;-86
2022/01/01 01:50:47;;;;;;;13.77;8.37;;;;;;;;;;5042505;28;20184;-86
2022/01/01 01:53:13;;;;;;;10.90;8.60;;;;;;;;;;5042622;28;20201;-86
2022/01/01 01:55:39;;;;;;;11.43;8.80;;;;;;;;;;5059734;28;20216;-86
2022/01/01 01:58:05;;;;;;;13.77;9.03;;;;;;;;;;5042418;28;20235;-86
2022/01/01 02:02:57;;;;;;;13.00;9.30;;;;;;;;;;4991972;28;20545;-86
2022/01/01 02:05:23;;;;;;;14.87;10.03;;;;;;;;;;5059555;28;20186;-86
2022/01/01 02:07:50;;;;;;;12.90;9.73;;;;;;;;;;5059350;28;20252;-86
2022/01/01 02:10:17;;;;;;;13.30;10.17;;;;;;;;;;5059615;28;20184;-86
2022/01/01 02:12:48;;;;;;;14.87;10.47;;;;;;;;;;5059246;28;20659;-86
2022/01/01 02:15:37;;;;;;;14.33;10.67;;;;;;;;;;5039009;28;20207;-86
2022/01/01 02:18:03;;;;;;;15.47;10.73;;;;;;;;;;5058555;28;20207;-86
2022/01/01 02:20:29;;;;;;;16.40;11.27;;;;;;;;;;5041771;28;20190;-85
2022/01/01 02:23:00;;;;;;;20.83;10.93;;;;;;;;;;5041629;28;20180;-85
2022/01/01 02:25:26;;;;;;;15.13;10.83;;;;;;;;;;5039144;28;20184;-86
2022/01/01 02:27:52;;;;;;;15.47;11.17;;;;;;;;;;5058957;28;20207;-86
2022/01/01 02:30:18;;;;;;;15.00;11.77;;;;;;;;;;5042037;28;20194;-84
2022/01/01 02:32:44;;;;;;;20.53;12.20;;;;;;;;;;5041790;28;20180;-86
2022/01/01 02:35:11;;;;;;;17.77;11.50;;;;;;;;;;5041681;28;20208;-85
2022/01/01 02:37:38;;;;;;;17.57;11.73;;;;;;;;;;5041321;28;20204;-86
2022/01/01 02:40:05;;;;;;;16.53;11.83;;;;;;;;;;5058891;28;20188;-86
2022/01/01 02:42:32;;;;;;;18.30;11.70;;;;;;;;;;5058801;28;20172;-85
2022/01/01 02:44:59;;;;;;;17.53;12.03;;;;;;;;;;5058412;28;20179;-85
2022/01/01 02:47:26;;;;;;;20.83;12.50;;;;;;;;;;5058509;28;20206;-86
2022/01/01 02:49:52;;;;;;;18.30;11.70;;;;;;;;;;5058450;28;20221;-86
2022/01/01 02:52:18;;;;;;;18.87;12.60;;;;;;;;;;5041146;28;20187;-86
2022/01/01 02:54:44;;;;;;;17.93;12.10;;;;;;;;;;5041254;28;20283;-86
2022/01/01 02:57:10;;;;;;;19.30;12.17;;;;;;;;;;5058320;28;20642;-85
2022/01/01 02:59:36;;;;;;;17.63;11.70;;;;;;;;;;5058291;28;20231;-86
2022/01/01 03:02:02;;;;;;;16.67;12.03;;;;;;;;;;5041196;28;20220;-85
2022/01/01 03:04:28;;;;;;;18.43;12.40;;;;;;;;;;5058474;28;20183;-85
2022/01/01 03:06:55;;;;;;;14.50;11.10;;;;;;;;;;5041106;28;20218;-86
2022/01/01 03:09:23;;;;;;;16.70;11.80;;;;;;;;;;5040350;28;20298;-86
2022/01/01 03:11:50;;;;;;;15.67;11.87;;;;;;;;;;5040178;28;20185;-86
2022/01/01 03:14:17;;;;;;;16.33;11.03;;;;;;;;;;5041237;28;20191;-86
2022/01/01 03:16:46;;;;;;;17.20;11.57;;;;;;;;;;5057216;28;20176;-86
2022/01/01 03:19:12;;;;;;;16.77;11.17;;;;;;;;;;5058097;28;20192;-86
2022/01/01 03:21:39;;;;;;;19.23;11.67;;;;;;;;;;5040830;28;20180;-86
2022/01/01 03:24:05;;;;;;;15.70;10.60;;;;;;;;;;5040903;28;20191;-85
2022/01/01 03:26:31;;;;;;;16.73;11.33;;;;;;;;;;5058131;28;20642;-86
2022/01/01 03:28:57;;;;;;;15.83;11.77;;;;;;;;;;5040940;28;20260;-85
2022/01/01 03:31:24;;;;;;;18.97;11.50;;;;;;;;;;5040700;28;20184;-85
2022/01/01 03:33:51;;;;;;;17.57;11.77;;;;;;;;;;5039817;28;20188;-84
2022/01/01 03:36:17;;;;;;;18.40;11.13;;;;;;;;;;5057852;28;20203;-85
2022/01/01 03:38:43;;;;;;;16.90;11.17;;;;;;;;;;5040454;28;20215;-85
2022/01/01 03:41:09;;;;;;;14.63;11.03;;;;;;;;;;5040655;28;20175;-85
2022/01/01 03:43:35;;;;;;;15.10;11.37;;;;;;;;;;5041042;28;20325;-85
2022/01/01 03:46:01;;;;;;;15.53;11.40;;;;;;;;;;5040709;28;20279;-86
2022/01/01 03:48:27;;;;;;;17.73;11.33;;;;;;;;;;5040538;28;20808;-86
2022/01/01 03:50:53;;;;;;;18.47;11.53;;;;;;;;;;5057216;28;20180;-86
2022/01/01 03:53:19;;;;;;;15.63;11.33;;;;;;;;;;5040568;28;20287;-86
2022/01/01 03:55:45;;;;;;;16.00;11.67;;;;;;;;;;5040238;28;20583;-85
2022/01/01 03:58:11;;;;;;;14.57;10.97;;;;;;;;;;5040353;28;20209;-86
2022/01/01 04:00:39;;;;;;;17.97;11.13;;;;;;;;;;5040040;28;20180;-85
2022/01/01 04:03:13;;;;;;;15.73;11.00;;;;;;;;;;5038920;28;20172;-86
2022/01/01 04:05:42;;;;;;;16.90;11.20;;;;;;;;;;5039896;28;20184;-86
2022/01/01 04:08:09;;;;;;;18.20;11.33;;;;;;;;;;5038457;28;20231;-86
2022/01/01 04:10:35;;;;;;;18.07;11.73;;;;;;;;;;5040144;28;20232;-86
2022/01/01 04:13:02;;;;;;;15.97;10.83;;;;;;;;;;5057536;28;20285;-86
2022/01/01 04:15:28;;;;;;;16.07;10.70;;;;;;;;;;5039949;28;20204;-86
2022/01/01 04:18:00;;;;;;;17.03;11.60;;;;;;;;;;5057189;28;20192;-86
2022/01/01 04:20:26;;;;;;;15.23;10.97;;;;;;;;;;5036746;28;20186;-86
2022/01/01 04:22:53;;;;;;;20.50;11.27;;;;;;;;;;5057137;28;20583;-86
2022/01/01 04:25:20;;;;;;;15.60;10.60;;;;;;;;;;5057302;28;20176;-86
2022/01/01 04:27:46;;;;;;;19.40;11.03;;;;;;;;;;5062285;28;20731;-86
2022/01/01 04:30:12;;;;;;;15.03;11.00;;;;;;;;;;5063710;28;20183;-86
2022/01/01 04:32:38;;;;;;;17.00;11.67;;;;;;;;;;5063413;28;20311;-86
2022/01/01 04:35:05;;;;;;;14.90;10.97;;;;;;;;;;5046578;28;20262;-86
2022/01/01 04:37:31;;;;;;;16.80;11.37;;;;;;;;;;5046071;28;20665;-86
2022/01/01 04:39:59;;;;;;;16.53;10.43;;;;;;;;;;5046721;28;20182;-86
2022/01/01 04:42:25;;;;;;;18.03;10.97;;;;;;;;;;5063486;28;20171;-86
2022/01/01 04:44:52;;;;;;;17.30;11.17;;;;;;;;;;5046291;28;20183;-86
2022/01/01 04:47:18;;;;;;;17.37;11.37;;;;;;;;;;5063536;28;20207;-85
2022/01/01 04:49:44;;;;;;;14.80;10.47;;;;;;;;;;5046469;28;20624;-86
2022/01/01 04:52:10;;;;;;;17.70;11.53;;;;;;;;;;5063507;28;20561;-86
2022/01/01 04:54:40;;;;;;;16.23;10.70;;;;;;;;;;5063479;28;20204;-86
2022/01/01 04:57:06;;;;;;;18.10;11.60;;;;;;;;;;5043912;28;20196;-86
2022/01/01 04:59:32;;;;;;;15.03;10.83;;;;;;;;;;5045948;28;20291;-86
2022/01/01 05:01:58;;;;;;;15.90;10.73;;;;;;;;;;5063460;28;20197;-86
2022/01/01 05:04:24;;;;;;;16.13;10.60;;;;;;;;;;5046649;28;20175;-86
2022/01/01 05:06:51;;;;;;;16.37;11.10;;;;;;;;;;5046416;28;20563;-86
2022/01/01 05:09:18;;;;;;;18.13;11.30;;;;;;;;;;5045521;28;20195;-85
2022/01/01 05:11:44;;;;;;;15.93;10.37;;;;;;;;;;5062905;28;20556;-86
2022/01/01 05:14:10;;;;;;;14.20;9.67;;;;;;;;;;5063238;28;20556;-86
2022/01/01 05:16:36;;;;;;;14.50;10.10;;;;;;;;;;5063151;28;20207;-86
2022/01/01 05:19:03;;;;;;;15.17;10.03;;;;;;;;;;5046150;28;20203;-86
2022/01/01 05:21:32;;;;;;;14.33;10.23;;;;;;;;;;5063283;28;20210;-86
2022/01/01 05:23:58;;;;;;;13.07;9.50;;;;;;;;;;5063367;28;20180;-86
2022/01/01 05:26:24;;;;;;;13.17;10.17;;;;;;;;;;5063387;28;20172;-86
2022/01/01 05:28:50;;;;;;;15.07;10.10;;;;;;;;;;5063002;28;20195;-86
2022/01/01 05:31:17;;;;;;;14.80;9.83;;;;;;;;;;5063321;28;20176;-85
2022/01/01 05:33:43;;;;;;;13.97;9.60;;;;;;;;;;5063333;28;20595;-85
2022/01/01 05:36:09;;;;;;;14.43;9.73;;;;;;;;;;5045893;28;20273;-85
2022/01/01 05:38:35;;;;;;;13.43;9.27;;;;;;;;;;5060807;22;20277;-83
2022/01/01 05:41:01;;;;;;;14.27;9.70;;;;;;;;;;5024378;28;20275;-83
2022/01/01 05:43:27;;;;;;;13.40;8.77;;;;;;;;;;4957437;28;20227;-81
2022/01/01 05:45:53;;;;;;;12.93;9.10;;;;;;;;;;4957361;28;20196;-84
2022/01/01 05:48:19;;;;;;;11.83;8.73;;;;;;;;;;5018597;28;20205;-81
2022/01/01 05:50:45;;;;;;;14.30;9.30;;;;;;;;;;5020626;28;20181;-82
2022/01/01 05:53:11;;;;;;;12.27;9.17;;;;;;;;;;5020253;28;20246;-82
2022/01/01 05:55:37;;;;;;;11.73;8.50;;;;;;;;;;5019997;28;20212;-82
2022/01/01 05:58:05;;;;;;;11.63;7.80;;;;;;;;;;5019957;28;20201;-80
2022/01/01 06:00:31;;;;;;;12.20;8.40;;;;;;;;;;5019258;28;20561;-81
2022/01/01 06:02:58;;;;;;;12.07;8.57;;;;;;;;;;5019817;28;20203;-82
2022/01/01 06:05:24;;;;;;;10.63;8.40;;;;;;;;;;4952478;28;20600;-81
2022/01/01 06:07:50;;;;;;;12.23;8.40;;;;;;;;;;5019408;28;20185;-80
2022/01/01 06:10:16;;;;;;;10.60;8.07;;;;;;;;;;5019750;28;20241;-81
2022/01/01 06:12:42;;;;;;;11.13;8.27;;;;;;;;;;5019467;28;20249;-81
2022/01/01 06:15:08;;;;;;;11.87;7.97;;;;;;;;;;5019552;28;20218;-82
2022/01/01 06:17:34;;;;;;;10.70;7.87;;;;;;;;;;4952460;28;20177;-81
2022/01/01 06:20:00;;;;;;;10.17;7.60;;;;;;;;;;4952252;28;20194;-81
2022/01/01 06:22:26;;;;;;;9.87;8.00;;;;;;;;;;5019281;28;20189;-82
2022/01/01 06:24:52;;;;;;;10.77;8.00;;;;;;;;;;5019413;28;20189;-81
2022/01/01 06:27:18;;;;;;;12.00;8.13;;;;;;;;;;5019344;28;20204;-81
2022/01/01 06:29:45;;;;;;;9.80;7.07;;;;;;;;;;4952123;28;20204;-81
2022/01/01 06:32:11;;;;;;;10.07;7.07;;;;;;;;;;5018664;28;20219;-82
2022/01/01 06:34:37;;;;;;;10.17;7.17;;;;;;;;;;5019792;28;20216;-82
2022/01/01 06:37:03;;;;;;;12.13;7.10;;;;;;;;;;5019914;28;20181;-82
2022/01/01 06:39:29;;;;;;;8.73;7.00;;;;;;;;;;4952529;28;20312;-81
2022/01/01 06:41:55;;;;;;;9.37;6.70;;;;;;;;;;4951873;28;20181;-82
2022/01/01 06:44:21;;;;;;;9.60;7.03;;;;;;;;;;4951960;29;20189;-81
2022/01/01 06:46:47;;;;;;;9.43;7.07;;;;;;;;;;4951909;28;20651;-82
2022/01/01 06:49:13;;;;;;;10.27;7.23;;;;;;;;;;5018841;28;20236;-82
2022/01/01 06:51:39;;;;;;;10.30;7.47;;;;;;;;;;5017792;28;20244;-80
2022/01/01 06:54:05;;;;;;;10.50;8.03;;;;;;;;;;4951837;28;20177;-80
2022/01/01 06:56:32;;;;;;;9.33;6.40;;;;;;;;;;5018494;28;20224;-79
2022/01/01 06:58:58;;;;;;;9.17;6.63;;;;;;;;;;4951548;28;20201;-79
2022/01/01 07:01:24;;;;;;;9.40;6.53;;;;;;;;;;4951497;28;20647;-81
2022/01/01 07:03:50;;;;;;;7.37;6.20;;;;;;;;;;5018515;28;20280;-80
2022/01/01 07:06:16;;;;;;;10.30;6.87;;;;;;;;;;5019816;28;20226;-82
2022/01/01 07:08:42;;;;;;;8.70;7.10;;;;;;;;;;5018936;28;20209;-84
2022/01/01 07:11:08;;;;;;;9.47;6.70;;;;;;;;;;4951135;28;20572;-82
2022/01/01 07:13:34;;;;;;;9.57;7.33;;;;;;;;;;4951917;28;20242;-82
2022/01/01 07:16:00;;;;;;;12.17;6.90;;;;;;;;;;4952725;28;20208;-82
2022/01/01 07:18:26;;;;;;;8.87;6.73;;;;;;;;;;4952533;28;20193;-82
2022/01/01 07:20:52;;;;;;;10.37;7.43;;;;;;;;;;5018088;28;20537;-83
2022/01/01 07:23:18;;;;;;;10.47;7.03;;;;;;;;;;4951925;28;20181;-84
2022/01/01 07:25:44;;;;;;;13.00;7.90;;;;;;;;;;4952111;28;20185;-83
2022/01/01 07:28:13;;;;;;;10.83;7.63;;;;;;;;;;5018432;28;20208;-84
2022/01/01 07:30:39;;;;;;;8.93;7.53;;;;;;;;;;5017129;28;20186;-84
2022/01/01 07:33:05;;;;;;;12.23;7.60;;;;;;;;;;5018863;28;20185;-84
2022/01/01 07:35:36;;;;;;;9.00;7.13;;;;;;;;;;5018479;28;20477;-84
2022/01/01 07:38:02;;;;;;;11.03;7.67;;;;;;;;;;4950988;28;20225;-85
2022/01/01 07:40:29;;;;;;;9.93;8.03;;;;;;;;;;4950940;28;20272;-83
2022/01/01 07:42:55;;;;;;;10.93;8.00;;;;;;;;;;5017452;28;20177;-83
2022/01/01 07:45:21;;;;;;;10.00;7.70;;;;;;;;;;4951115;28;20181;-82
2022/01/01 07:47:47;;;;;;;11.27;7.90;;;;;;;;;;4951697;28;20230;-83
2022/01/01 07:50:13;;;;;;;10.40;7.53;;;;;;;;;;5011946;28;20275;-82
2022/01/01 07:52:40;;;;;;;11.47;7.27;;;;;;;;;;4960188;28;20272;-82
2022/01/01 07:55:06;;;;;;;13.50;7.90;;;;;;;;;;4951855;28;20197;-81
2022/01/01 07:57:32;;;;;;;9.53;7.87;;;;;;;;;;4950937;28;20331;-82
2022/01/01 07:59:58;;;;;;;10.73;8.03;;;;;;;;;;4942983;28;20209;-82
2022/01/01 08:02:24;;;;;;;11.97;8.40;;;;;;;;;;4961208;28;20188;-82
2022/01/01 08:04:50;;;;;;;14.63;8.23;;;;;;;;;;4966915;28;20181;-81
2022/01/01 08:07:16;;;;;;;13.30;9.00;;;;;;;;;;4966945;28;20188;-83
2022/01/01 08:09:42;;;;;;;11.20;8.70;;;;;;;;;;5020510;28;20205;-81
2022/01/01 08:12:08;;;;;;;11.83;8.30;;;;;;;;;;5020267;28;20219;-82
2022/01/01 08:14:34;;;;;;;13.50;8.30;;;;;;;;;;5020511;28;20189;-82
2022/01/01 08:17:02;;;;;;;11.07;8.43;;;;;;;;;;4969578;28;20648;-81
2022/01/01 08:19:28;;;;;;;13.37;9.13;;;;;;;;;;5020739;28;20208;-81
2022/01/01 08:21:55;;;;;;;11.00;8.40;;;;;;;;;;4969346;28;20177;-82
2022/01/01 08:24:21;;;;;;;13.07;8.63;;;;;;;;;;4971339;28;20344;-81
2022/01/01 08:26:48;;;;;;;12.97;8.70;;;;;;;;;;4972073;28;20263;-81
2022/01/01 08:29:14;;;;;;;13.70;8.17;;;;;;;;;;4972497;28;20678;-82
2022/01/01 08:31:40;;;;;;;13.07;8.43;;;;;;;;;;4972260;28;20225;-81
2022/01/01 08:34:07;;;;;;;12.83;8.13;;;;;;;;;;4972722;28;20226;-82
2022/01/01 08:36:33;;;;;;;10.67;8.20;;;;;;;;;;5023012;28;20219;-82
2022/01/01 08:38:59;;;;;;;11.33;8.23;;;;;;;;;;4972459;28;20244;-82
2022/01/01 08:41:25;;;;;;;11.73;8.47;;;;;;;;;;5023278;28;20191;-81
2022/01/01 08:43:51;;;;;;;13.03;8.33;;;;;;;;;;4971888;28;20176;-82
2022/01/01 08:46:17;;;;;;;11.70;8.17;;;;;;;;;;5021792;28;20181;-81
2022/01/01 08:48:43;;;;;;;12.27;8.33;;;;;;;;;;5020443;28;20211;-81
2022/01/01 08:51:17;;;;;;;13.03;8.40;;;;;;;;;;5020438;28;20196;-80
2022/01/01 08:53:43;;;;;;;13.97;8.77;;;;;;;;;;4969205;28;20196;-81
2022/01/01 08:56:09;;;;;;;10.47;8.27;;;;;;;;;;5020178;28;20219;-82
2022/01/01 08:58:35;;;;;;;16.33;9.13;;;;;;;;;;4969323;28;20199;-81
2022/01/01 09:01:02;;;;;;;12.37;8.70;;;;;;;;;;5020025;28;20177;-81
2022/01/01 09:03:28;;;;;;;12.67;8.73;;;;;;;;;;4969223;28;20181;-80
2022/01/01 09:05:54;;;;;;;11.90;8.70;;;;;;;;;;5020540;28;20191;-80
2022/01/01 09:08:20;;;;;;;13.30;8.87;;;;;;;;;;4968917;28;20208;-81
2022/01/01 09:10:46;;;;;;;12.70;8.77;;;;;;;;;;5020174;28;20318;-81
2022/01/01 09:13:12;;;;;;;12.47;8.47;;;;;;;;;;4969512;28;20218;-83
2022/01/01 09:15:38;;;;;;;13.53;9.00;;;;;;;;;;5023656;28;20244;-81
2022/01/01 09:18:04;;;;;;;13.53;8.70;;;;;;;;;;4972719;28;20214;-84
2022/01/01 09:20:30;;;;;;;12.37;8.33;;;;;;;;;;4972830;28;20267;-84
2022/01/01 09:22:56;;;;;;;11.93;8.37;;;;;;;;;;5024240;28;20541;-84
2022/01/01 09:25:22;;;;;;;12.50;8.47;;;;;;;;;;4972897;28;20187;-84
2022/01/01 09:27:48;;;;;;;11.37;8.63;;;;;;;;;;4972425;28;20177;-84
2022/01/01 09:30:14;;;;;;;12.13;8.17;;;;;;;;;;5023935;28;20233;-84
2022/01/01 09:32:40;;;;;;;12.43;8.53;;;;;;;;;;5023507;28;20188;-84
2022/01/01 09:35:07;;;;;;;12.47;8.60;;;;;;;;;;5023592;28;20212;-84
2022/01/01 09:37:33;;;;;;;13.83;8.97;;;;;;;;;;4972281;28;20188;-84
2022/01/01 09:40:00;;;;;;;12.17;8.40;;;;;;;;;;5023617;28;20582;-84
2022/01/01 09:42:26;;;;;;;11.57;8.73;;;;;;;;;;5023540;28;20642;-82
2022/01/01 09:44:52;;;;;;;13.73;9.10;;;;;;;;;;4972727;28;20184;-83
2022/01/01 09:47:19;;;;;;;13.33;9.07;;;;;;;;;;5023535;28;20212;-83
2022/01/01 09:49:45;;;;;;;12.50;8.90;;;;;;;;;;4973069;28;20573;-82
2022/01/01 09:52:13;;;;;;;13.17;9.00;;;;;;;;;;4973503;28;20184;-81
2022/01/01 09:54:39;;;;;;;14.30;9.23;;;;;;;;;;4972298;28;20647;-79
2022/01/01 09:57:05;;;;;;;16.17;10.33;;;;;;;;;;4972051;28;20721;-81
2022/01/01 09:59:31;;;;;;;13.60;9.00;;;;;;;;;;5040612;28;20201;-80
2022/01/01 10:01:58;;;;;;;9.67;7.70;;;;;;;;;;5023463;28;20184;-80
2022/01/01 10:04:24;;;;;;;14.37;9.07;;;;;;;;;;4973228;28;20189;-80
2022/01/01 10:07:03;;;;;;;13.20;8.63;;;;;;;;;;4972213;28;20177;-81
2022/01/01 10:09:30;;;;;;;14.33;9.20;;;;;;;;;;5022783;28;20204;-81
2022/01/01 10:11:56;;;;;;;13.90;9.20;;;;;;;;;;4971746;28;20216;-81
2022/01/01 10:14:33;;;;;;;13.00;8.83;;;;;;;;;;5022986;28;20188;-81
2022/01/01 10:16:59;;;;;;;13.30;9.43;;;;;;;;;;4971842;28;20263;-81
2022/01/01 10:19:29;;;;;;;14.47;9.60;;;;;;;;;;5023013;28;20255;-81
2022/01/01 10:21:57;;;;;;;11.83;9.40;;;;;;;;;;4971489;28;20181;-81
2022/01/01 10:24:40;;;;;;;13.77;9.57;;;;;;;;;;4971488;28;20183;-81
2022/01/01 10:29:57;;;;;;;11.90;8.73;;;;;;;;;;5029885;28;20234;-81
2022/01/01 10:32:24;;;;;;;14.37;9.70;;;;;;;;;;4971878;28;20173;-81
2022/01/01 10:34:50;;;;;;;13.43;10.13;;;;;;;;;;4971555;28;20574;-81
2022/01/01 10:37:17;;;;;;;14.77;9.83;;;;;;;;;;4971133;28;20176;-81
2022/01/01 10:39:50;;;;;;;14.33;9.17;;;;;;;;;;5022353;28;20220;-81
2022/01/01 10:42:16;;;;;;;15.00;9.70;;;;;;;;;;4971223;28;20183;-81
2022/01/01 10:44:46;;;;;;;12.90;8.67;;;;;;;;;;4971641;28;20184;-81
2022/01/01 10:47:24;;;;;;;11.93;8.73;;;;;;;;;;4971544;28;20271;-82
2022/01/01 10:50:04;;;;;;;11.37;7.73;;;;;;;;;;4971773;28;20204;-80
2022/01/01 10:52:32;;;;;;;13.77;8.17;;;;;;;;;;5015248;28;20208;-80
2022/01/01 10:55:04;;;;;;;8.53;7.07;;;;;;;;;;4971345;28;20208;-81
2022/01/01 10:57:51;;;;;;;11.40;7.83;;;;;;;;;;4970977;28;20187;-79
2022/01/01 11:00:23;;;;;;;9.23;7.20;;;;;;;;;;4971550;28;20639;-80
2022/01/01 11:02:50;;;;;;;9.73;7.23;;;;;;;;;;4971430;28;20192;-80
2022/01/01 11:05:16;;;;;;;12.23;7.13;;;;;;;;;;4971358;28;20181;-80
2022/01/01 11:07:52;;;;;;;9.10;6.40;;;;;;;;;;4971194;28;20191;-80
2022/01/01 11:10:19;;;;;;;11.43;7.33;;;;;;;;;;5021937;28;20555;-81
2022/01/01 11:12:46;;;;;;;11.73;7.53;;;;;;;;;;4970995;28;20177;-83
2022/01/01 11:15:12;;;;;;;10.83;7.63;;;;;;;;;;4970867;28;20674;-82
2022/01/01 11:17:38;;;;;;;11.80;7.37;;;;;;;;;;4970529;28;20652;-84
2022/01/01 13:43:10;;;;;;;10.60;7.47;;;;;;;;;;5956650;22;20217;-86
2022/01/01 13:45:37;;;;;;;9.80;6.77;;;;;;;;;;5037654;28;20239;-86
2022/01/01 13:48:10;;;;;;;9.37;6.47;;;;;;;;;;5021029;28;20580;-86
2022/01/01 13:50:41;;;;;;;8.77;6.23;;;;;;;;;;5021321;28;20277;-86
2022/01/01 13:53:08;;;;;;;8.20;5.70;;;;;;;;;;5020509;28;20197;-86
2022/01/01 13:55:34;;;;;;;10.10;5.90;;;;;;;;;;5037551;28;20224;-86
2022/01/01 13:58:03;;;;;;;7.87;5.97;;;;;;;;;;5035783;23;20221;-83
2022/01/01 14:00:29;;;;;;;8.00;5.30;;;;;;;;;;5053339;28;20186;-83
2022/01/01 14:02:57;;;;;;;8.10;5.87;;;;;;;;;;5053600;28;20178;-83
2022/01/01 14:05:23;;;;;;;8.43;6.17;;;;;;;;;;5053967;28;20197;-83
2022/01/01 14:07:51;;;;;;;8.60;5.50;;;;;;;;;;5053658;28;20248;-83
2022/01/01 14:10:20;;;;;;;7.70;5.07;;;;;;;;;;5037404;28;20170;-82
2022/01/01 14:12:52;;;;;;;8.70;5.67;;;;;;;;;;5037259;28;20178;-82
2022/01/01 14:15:19;;;;;;;7.43;5.30;;;;;;;;;;5021074;28;20231;-82
2022/01/01 14:17:50;;;;;;;7.53;5.33;;;;;;;;;;5020633;28;20181;-82
2022/01/01 14:20:24;;;;;;;6.13;4.83;;;;;;;;;;5037001;28;20251;-82
2022/01/01 14:22:50;;;;;;;7.33;4.63;;;;;;;;;;5036833;28;20211;-82
2022/01/01 14:25:16;;;;;;;6.33;4.80;;;;;;;;;;5020549;28;20266;-83
2022/01/01 14:27:47;;;;;;;4.87;3.97;;;;;;;;;;5020040;28;20231;-82
2022/01/01 14:30:14;;;;;;;5.90;3.77;;;;;;;;;;5036935;28;20177;-82
2022/01/01 14:32:42;;;;;;;7.77;3.70;;;;;;;;;;5036540;28;20174;-83
2022/01/01 14:35:09;;;;;;;6.33;3.27;;;;;;;;;;5020805;28;20210;-83
2022/01/01 14:37:35;;;;;;;4.47;2.80;;;;;;;;;;5036252;28;20173;-82
2022/01/01 14:40:00;;;;;;;3.70;2.40;;;;;;;;;;5036949;28;20327;-83
2022/01/01 14:42:26;;;;;;;4.27;2.47;;;;;;;;;;5036443;28;20173;-83
2022/01/01 14:44:52;;;;;;;4.10;2.60;;;;;;;;;;5020440;28;20549;-82
2022/01/01 14:47:25;;;;;;;3.70;2.70;;;;;;;;;;5019943;28;20185;-83
2022/01/01 14:49:56;;;;;;;4.17;2.80;;;;;;;;;;5036194;28;20190;-83
2022/01/01 14:55:46;;;;;;;4.20;2.77;;;;;;;;;;5054374;28;20237;-83
2022/01/01 14:58:13;;;;;;;4.87;2.73;;;;;;;;;;5036041;28;20219;-83
2022/01/01 15:00:39;;;;;;;4.53;2.77;;;;;;;;;;5035994;28;20264;-83
2022/01/01 15:03:05;;;;;;;4.73;2.73;;;;;;;;;;5036123;28;20169;-82
2022/01/01 15:05:32;;;;;;;3.43;2.67;;;;;;;;;;5019474;28;20189;-83
2022/01/01 15:07:59;;;;;;;3.87;2.70;;;;;;;;;;5035864;28;20198;-83
2022/01/01 15:10:27;;;;;;;4.07;2.83;;;;;;;;;;5019290;28;20193;-83
2022/01/01 15:12:53;;;;;;;3.67;2.73;;;;;;;;;;5052847;28;20177;-83
2022/01/01 15:15:19;;;;;;;5.03;2.47;;;;;;;;;;5035686;28;20292;-83
2022/01/01 15:17:45;;;;;;;3.37;2.70;;;;;;;;;;5019924;28;20185;-83
2022/01/01 15:20:12;;;;;;;6.03;2.57;;;;;;;;;;5019516;28;20204;-79
2022/01/01 15:22:41;;;;;;;3.33;2.50;;;;;;;;;;5020490;28;20537;-83
2022/01/01 15:25:09;;;;;;;4.67;3.00;;;;;;;;;;5035874;28;20264;-82
2022/01/01 15:27:36;;;;;;;4.20;2.50;;;;;;;;;;5036202;28;20178;-80
2022/01/01 15:30:28;;;;;;;4.40;2.53;;;;;;;;;;5036136;28;20182;-80
2022/01/01 15:33:16;;;;;;;3.97;2.80;;;;;;;;;;5023554;28;20173;-81
2022/01/01 15:40:59;;;;;;;3.87;2.50;;;;;;;;;;5035863;28;20197;-82
2022/01/01 15:43:26;;;;;;;2.77;2.50;;;;;;;;;;5020917;28;20227;-82
2022/01/01 15:45:53;;;;;;;4.33;2.60;;;;;;;;;;5035692;28;20177;-82
2022/01/01 15:48:20;;;;;;;4.70;2.80;;;;;;;;;;5035261;28;20197;-82
2022/01/01 15:50:46;;;;;;;3.07;2.50;;;;;;;;;;5019283;28;20647;-82
2022/01/01 15:53:13;;;;;;;3.97;2.33;;;;;;;;;;5019003;28;20189;-82
2022/01/01 15:55:46;;;;;;;5.33;2.70;;;;;;;;;;5035215;28;20201;-82
2022/01/01 15:58:13;;;;;;;4.33;2.50;;;;;;;;;;5035025;28;20576;-82
2022/01/01 16:00:40;;;;;;;3.70;2.47;;;;;;;;;;5018772;28;20647;-82
2022/01/01 16:03:25;;;;;;;3.37;2.40;;;;;;;;;;5017994;28;20280;-83
2022/01/01 16:05:54;;;;;;;5.80;2.37;;;;;;;;;;5032533;28;20277;-81
2022/01/01 16:08:24;;;;;;;5.63;3.17;;;;;;;;;;5015390;28;20198;-80
2022/01/01 16:10:54;;;;;;;3.60;2.50;;;;;;;;;;4999452;28;20190;-80
2022/01/01 16:13:21;;;;;;;3.50;2.40;;;;;;;;;;5033029;28;20186;-80
2022/01/01 16:15:57;;;;;;;3.30;2.13;;;;;;;;;;4999254;28;20206;-80
2022/01/01 16:18:31;;;;;;;4.03;2.40;;;;;;;;;;5015274;28;20344;-80
2022/01/01 16:21:05;;;;;;;6.57;2.60;;;;;;;;;;5032546;28;20190;-80
2022/01/01 16:23:31;;;;;;;4.00;2.53;;;;;;;;;;5014513;28;20166;-80
2022/01/01 16:25:57;;;;;;;3.67;2.20;;;;;;;;;;5015172;28;20247;-80
2022/01/01 16:28:44;;;;;;;2.97;2.27;;;;;;;;;;4998649;28;20731;-80
2022/01/01 16:31:10;;;;;;;2.77;2.33;;;;;;;;;;5015042;28;20660;-80
2022/01/01 16:33:40;;;;;;;3.67;2.30;;;;;;;;;;5014800;28;20272;-80
2022/01/01 16:36:07;;;;;;;4.93;2.40;;;;;;;;;;5015212;28;20568;-80
2022/01/01 16:38:33;;;;;;;3.57;2.50;;;;;;;;;;5032637;28;20687;-80
2022/01/01 16:41:08;;;;;;;3.13;2.27;;;;;;;;;;4998778;28;20170;-80
2022/01/01 16:43:40;;;;;;;2.87;2.13;;;;;;;;;;4998586;28;20170;-80
2022/01/01 16:46:11;;;;;;;4.70;2.43;;;;;;;;;;5015375;28;20178;-80
2022/01/01 16:48:45;;;;;;;3.53;2.00;;;;;;;;;;4998965;28;20198;-80
2022/01/01 16:51:13;;;;;;;2.47;1.70;;;;;;;;;;5015137;28;20178;-80
2022/01/01 16:53:44;;;;;;;4.77;2.40;;;;;;;;;;5014966;28;20198;-80
2022/01/01 16:56:11;;;;;;;2.40;1.90;;;;;;;;;;5014839;28;20202;-80
2022/01/01 16:58:44;;;;;;;2.37;2.00;;;;;;;;;;5014623;28;20209;-80
2022/01/01 17:01:14;;;;;;;3.63;2.10;;;;;;;;;;5014948;28;20561;-82
2022/01/01 17:03:43;;;;;;;3.23;2.00;;;;;;;;;;5015134;28;20170;-81
2022/01/01 17:06:11;;;;;;;5.50;2.30;;;;;;;;;;5015005;28;20186;-80
2022/01/01 17:08:38;;;;;;;3.17;2.00;;;;;;;;;;5015031;28;20208;-80